Buna, Texas
Current Conditions -  °F | °C
As of 7:55 AM on Thursday 23 Oct 2014 (Local Time) from KORG Reporting Station
Clear Clear  
Wind Chill: 55°   Ceiling: Unl
Heat Index: 55°   Visibility: 10mi
Dew Point: 53°   Wind: 6mph
Humidity: 91%   Direction: 40°NE
Pressure: 30.11"   Gusts: NA
Location:  30.43°N, 93.97°W
Report Text: KORG 231255Z AUTO 04005KT 10SM CLR 13/12 A3011 RMK AO2 T01300115
Loading
Personal Weather Stations






























Interactive Weather Map
Tropical Storm Tracking
New forecast layout! Learn more

10-Day Weather Forecast

Advertisements
Track Severe Weather on mobile